Time;durP1;ratioP1;P1;durP2;ratioP2;P2;SDS_P1;SDS_P2;PMS_P1;PMS_P2;Temp;Humidity;BMP_temperature;BMP_pressure;BME280_temperature;BME280_humidity;BME280_pressure;Samples;Min_cycle;Max_cycle;Signal;HPM_P1;HPM_P2
2023/05/04 00:00:07;;;;;;;14.75;7.30;;;;;;;11.90;54.24;102170.88;5056087;28;20506;-62
2023/05/04 00:02:33;;;;;;;15.60;6.70;;;;;;;11.88;54.04;102175.25;5056050;28;20056;-62
2023/05/04 00:04:58;;;;;;;12.27;6.82;;;;;;;11.91;54.45;102167.41;5056040;28;20029;-62
2023/05/04 00:07:24;;;;;;;11.70;6.88;;;;;;;11.87;54.15;102164.63;5037894;28;20029;-63
2023/05/04 00:09:50;;;;;;;9.73;6.55;;;;;;;11.87;54.47;102157.56;5055432;28;20461;-62
2023/05/04 00:12:16;;;;;;;8.75;6.05;;;;;;;11.82;54.57;102159.19;5055874;28;20033;-62
2023/05/04 00:14:42;;;;;;;12.18;6.68;;;;;;;11.74;54.46;102152.78;5055855;28;20021;-63
2023/05/04 00:17:07;;;;;;;12.15;6.57;;;;;;;11.73;55.29;102153.59;5055773;28;20025;-62
2023/05/04 00:19:34;;;;;;;12.68;6.40;;;;;;;11.64;55.28;102156.00;5055822;28;20029;-62
2023/05/04 00:21:59;;;;;;;13.68;6.28;;;;;;;11.64;55.13;102154.25;5055522;28;20025;-63
2023/05/04 00:24:25;;;;;;;9.88;6.25;;;;;;;11.65;54.59;102147.22;5055751;28;20101;-63
2023/05/04 00:26:51;;;;;;;12.23;6.70;;;;;;;11.60;54.92;102141.78;5055481;28;20134;-63
2023/05/04 00:29:16;;;;;;;11.68;6.60;;;;;;;11.60;54.79;102136.50;5055313;28;20044;-63
2023/05/04 00:31:41;;;;;;;12.05;6.55;;;;;;;11.50;55.31;102126.53;5055416;28;20113;-62
2023/05/04 00:34:07;;;;;;;12.85;6.45;;;;;;;11.49;55.52;102135.31;5055281;28;20032;-62
2023/05/04 00:36:33;;;;;;;11.45;6.20;;;;;;;11.50;56.11;102124.75;5055499;28;20040;-62
2023/05/04 00:38:58;;;;;;;11.10;6.63;;;;;;;11.43;56.07;102127.19;5054606;28;20029;-63
2023/05/04 00:41:24;;;;;;;10.60;6.28;;;;;;;11.38;56.17;102120.88;5054958;28;20040;-63
2023/05/04 00:43:49;;;;;;;11.77;6.22;;;;;;;11.35;55.88;102120.78;5055134;28;20021;-63
2023/05/04 00:46:15;;;;;;;10.57;6.28;;;;;;;11.28;56.25;102119.75;5054908;28;20382;-63
2023/05/04 00:48:44;;;;;;;15.48;6.50;;;;;;;11.22;56.59;102124.84;5037326;28;20025;-62
2023/05/04 00:51:11;;;;;;;14.20;6.70;;;;;;;11.15;56.86;102122.91;5055071;28;20036;-63
2023/05/04 00:53:37;;;;;;;9.32;5.97;;;;;;;11.13;56.17;102117.53;5055230;28;20032;-62
2023/05/04 00:56:04;;;;;;;12.88;6.38;;;;;;;11.18;56.54;102118.59;5054865;28;20037;-62
2023/05/04 00:58:31;;;;;;;11.98;6.03;;;;;;;11.17;56.28;102118.53;5054795;28;20493;-63
2023/05/04 01:00:56;;;;;;;12.77;6.03;;;;;;;11.15;56.56;102107.91;5054673;28;20021;-62
2023/05/04 01:03:22;;;;;;;11.95;6.32;;;;;;;11.07;56.73;102112.09;5054986;28;20040;-63
2023/05/04 01:06:16;;;;;;;11.40;6.50;;;;;;;11.06;56.49;102112.94;5036713;28;20025;-63
2023/05/04 01:08:49;;;;;;;13.18;5.97;;;;;;;10.99;57.19;102116.25;5011921;28;20037;-63
2023/05/04 01:11:23;;;;;;;12.23;6.65;;;;;;;10.99;57.21;102105.66;5054733;28;20021;-64
2023/05/04 01:13:50;;;;;;;14.15;6.63;;;;;;;10.93;57.14;102106.41;5054477;28;20056;-63
2023/05/04 01:16:15;;;;;;;12.52;6.30;;;;;;;10.92;57.38;102103.69;5054514;28;20033;-62
2023/05/04 01:18:41;;;;;;;9.40;6.05;;;;;;;10.93;57.08;102098.47;5054408;28;20120;-63
2023/05/04 01:21:07;;;;;;;11.35;6.50;;;;;;;10.96;57.38;102103.84;5054329;28;20466;-63
2023/05/04 01:23:33;;;;;;;13.40;6.72;;;;;;;10.93;57.53;102092.28;5054333;28;20033;-63
2023/05/04 01:26:16;;;;;;;12.50;6.05;;;;;;;10.95;57.31;102095.84;5054290;28;20437;-63
2023/05/04 01:28:44;;;;;;;;;;;;;;;11.02;56.70;102090.78;5054616;28;20025;-63
2023/05/04 01:31:13;;;;;;;11.60;6.43;;;;;;;10.91;57.48;102084.28;5054091;28;19960;-63
2023/05/04 01:33:38;;;;;;;10.82;6.45;;;;;;;10.86;57.63;102090.28;5054045;28;20029;-63
2023/05/04 01:36:05;;;;;;;12.73;6.50;;;;;;;10.76;58.21;102092.66;5054060;28;20114;-63
2023/05/04 01:38:30;;;;;;;8.23;6.28;;;;;;;10.78;57.90;102101.53;5053884;28;20417;-63
2023/05/04 01:40:56;;;;;;;11.75;6.15;;;;;;;10.80;58.50;102100.72;5036081;28;20017;-63
2023/05/04 01:43:21;;;;;;;11.13;6.18;;;;;;;10.84;58.02;102094.66;5053973;28;20082;-63
2023/05/04 01:45:47;;;;;;;9.43;5.78;;;;;;;10.80;58.28;102091.03;5036075;28;20060;-63
2023/05/04 01:48:12;;;;;;;9.50;6.28;;;;;;;10.78;58.24;102095.34;5036135;28;20029;-63
2023/05/04 01:50:38;;;;;;;10.15;5.88;;;;;;;10.77;58.31;102089.16;5053484;28;20029;-63
2023/05/04 01:53:03;;;;;;;8.75;6.03;;;;;;;10.76;58.12;102087.38;5053111;28;20105;-63
2023/05/04 01:55:28;;;;;;;10.13;6.40;;;;;;;10.73;58.11;102087.28;5035937;28;20025;-63
2023/05/04 01:57:54;;;;;;;8.75;6.05;;;;;;;10.69;58.53;102092.44;5053513;28;20108;-63
2023/05/04 02:00:20;;;;;;;10.77;6.22;;;;;;;10.63;58.84;102094.91;5035881;28;20504;-63
2023/05/04 02:02:46;;;;;;;10.73;6.10;;;;;;;10.57;59.27;102098.22;5035847;28;20532;-63
2023/05/04 02:05:11;;;;;;;8.77;6.32;;;;;;;10.60;59.07;102100.09;5053459;28;20037;-63
2023/05/04 02:07:37;;;;;;;12.63;6.03;;;;;;;10.53;59.76;102102.56;5053100;28;20040;-63
2023/05/04 02:10:03;;;;;;;11.98;6.07;;;;;;;10.59;59.97;102096.56;5035306;28;20403;-63
2023/05/04 02:12:28;;;;;;;10.35;5.72;;;;;;;10.55;59.38;102092.03;5035694;28;20482;-63
2023/05/04 02:14:53;;;;;;;8.23;5.90;;;;;;;10.56;59.41;102088.53;5035597;28;20090;-64
2023/05/04 02:17:19;;;;;;;11.60;6.25;;;;;;;10.58;59.16;102094.78;5053425;28;20032;-63
2023/05/04 02:19:44;;;;;;;8.10;6.07;;;;;;;10.61;59.16;102097.47;5019031;28;20020;-63
2023/05/04 02:22:10;;;;;;;9.45;6.30;;;;;;;10.54;59.01;102084.94;5053210;28;20508;-63
2023/05/04 02:24:35;;;;;;;11.90;6.18;;;;;;;10.56;59.68;102090.28;5053210;28;20029;-63
2023/05/04 02:27:00;;;;;;;9.35;6.10;;;;;;;10.49;59.17;102089.16;5053316;28;20025;-61
2023/05/04 02:29:26;;;;;;;9.32;6.60;;;;;;;10.42;59.44;102081.94;5053069;28;20032;-62
2023/05/04 02:31:51;;;;;;;9.70;6.05;;;;;;;10.42;59.59;102074.88;5053162;28;20021;-63
2023/05/04 02:34:17;;;;;;;9.73;6.07;;;;;;;10.35;59.96;102077.28;5053148;28;20474;-63
2023/05/04 02:36:42;;;;;;;10.27;6.30;;;;;;;10.27;60.23;102070.00;5053358;28;20112;-63
2023/05/04 02:39:08;;;;;;;9.77;5.65;;;;;;;10.27;60.15;102063.81;5052870;28;20489;-61
2023/05/04 02:41:33;;;;;;;10.63;5.75;;;;;;;10.27;60.50;102077.94;5053179;28;20025;-61
2023/05/04 02:43:58;;;;;;;15.50;6.20;;;;;;;10.23;60.65;102070.72;5053335;28;20427;-62
2023/05/04 02:46:25;;;;;;;9.98;6.30;;;;;;;10.22;60.80;102068.03;5052954;28;20072;-61
2023/05/04 02:48:51;;;;;;;9.55;6.18;;;;;;;10.22;60.58;102073.31;5052976;28;20064;-62
2023/05/04 02:51:17;;;;;;;7.53;6.00;;;;;;;10.18;60.74;102069.69;5052884;28;20056;-62
2023/05/04 02:53:43;;;;;;;11.63;6.40;;;;;;;10.09;61.11;102061.47;5052693;28;20033;-62
2023/05/04 02:56:08;;;;;;;8.48;6.00;;;;;;;10.06;61.19;102069.28;5052867;28;20514;-62
2023/05/04 02:58:34;;;;;;;8.75;5.85;;;;;;;10.04;61.06;102071.00;5052787;28;20024;-62
2023/05/04 03:00:59;;;;;;;8.95;6.43;;;;;;;10.01;61.32;102073.53;5052580;28;20029;-62
2023/05/04 03:03:25;;;;;;;10.40;6.03;;;;;;;9.99;61.41;102069.94;5052705;28;20036;-62
2023/05/04 03:05:50;;;;;;;8.45;5.78;;;;;;;9.98;61.62;102071.69;5052622;28;20021;-62
2023/05/04 03:08:15;;;;;;;13.80;6.03;;;;;;;10.00;61.33;102069.09;5052267;28;20072;-62
2023/05/04 03:10:41;;;;;;;9.23;6.25;;;;;;;10.00;61.54;102069.09;5052740;28;20040;-62
2023/05/04 03:13:06;;;;;;;10.18;6.28;;;;;;;9.97;61.45;102067.25;5034820;28;20471;-62
2023/05/04 03:15:32;;;;;;;12.57;6.15;;;;;;;9.93;61.78;102070.63;5052644;28;20032;-62
2023/05/04 03:17:57;;;;;;;12.88;6.57;;;;;;;9.90;61.89;102069.66;5052639;28;20029;-62
2023/05/04 03:20:23;;;;;;;9.77;6.40;;;;;;;9.84;62.10;102072.06;5034868;28;20017;-62
2023/05/04 03:22:49;;;;;;;11.90;6.53;;;;;;;9.83;62.11;102065.00;5052478;28;20075;-62
2023/05/04 03:25:14;;;;;;;12.07;6.43;;;;;;;9.83;62.19;102057.09;5052492;28;20036;-62
2023/05/04 03:27:40;;;;;;;10.75;5.78;;;;;;;9.75;62.22;102052.44;5052544;28;20053;-62
2023/05/04 03:30:06;;;;;;;11.45;6.30;;;;;;;9.72;62.53;102052.38;5052499;28;20021;-62
2023/05/04 03:32:32;;;;;;;10.80;6.00;;;;;;;9.71;62.81;102053.19;5052316;28;20486;-62
2023/05/04 03:34:57;;;;;;;13.30;6.35;;;;;;;9.71;62.50;102050.53;5052525;28;20109;-62
2023/05/04 03:37:23;;;;;;;9.13;6.13;;;;;;;9.70;63.12;102048.75;5052472;28;20036;-62
2023/05/04 03:39:48;;;;;;;10.05;6.40;;;;;;;9.66;62.77;102046.84;5052240;28;20386;-62
2023/05/04 03:42:14;;;;;;;10.52;6.28;;;;;;;9.62;63.25;102033.50;5052593;28;20025;-62
2023/05/04 03:44:40;;;;;;;9.57;6.40;;;;;;;9.62;63.13;102041.44;5052279;28;20025;-62
2023/05/04 03:47:05;;;;;;;11.00;6.00;;;;;;;9.62;63.23;102038.78;5052567;28;20029;-62
2023/05/04 03:49:32;;;;;;;9.25;6.10;;;;;;;9.63;63.28;102030.00;5052577;28;20052;-62
2023/05/04 03:51:58;;;;;;;9.00;6.20;;;;;;;9.62;63.67;102036.16;5034417;28;20033;-61
2023/05/04 03:54:23;;;;;;;10.68;6.43;;;;;;;9.58;63.79;102027.22;5052253;28;20404;-62
2023/05/04 03:56:48;;;;;;;9.40;6.10;;;;;;;9.56;63.59;102028.94;5052330;28;20112;-62
2023/05/04 03:59:14;;;;;;;11.27;6.63;;;;;;;9.55;63.66;102027.16;5052171;28;20029;-61
2023/05/04 04:01:39;;;;;;;9.50;6.10;;;;;;;9.56;63.85;102031.56;5052157;28;20025;-62
2023/05/04 04:04:04;;;;;;;14.85;6.22;;;;;;;9.50;64.10;102034.88;5052158;28;20087;-62
2023/05/04 04:06:30;;;;;;;9.65;6.50;;;;;;;9.51;63.85;102035.81;5052456;28;20108;-62
2023/05/04 04:08:56;;;;;;;10.95;6.00;;;;;;;9.56;63.65;102034.22;5051745;28;20152;-62
2023/05/04 04:11:21;;;;;;;11.70;6.18;;;;;;;9.49;64.11;102035.72;5052218;28;20554;-62
2023/05/04 04:13:47;;;;;;;11.80;6.50;;;;;;;9.47;64.00;102039.19;5052010;28;20039;-62
2023/05/04 04:16:12;;;;;;;10.98;5.97;;;;;;;9.46;64.55;102040.94;5037735;28;20029;-62
2023/05/04 04:18:38;;;;;;;9.32;6.05;;;;;;;9.43;64.62;102032.00;5055478;28;20028;-62
2023/05/04 04:21:04;;;;;;;9.07;6.28;;;;;;;9.41;64.55;102031.94;5037716;28;20555;-62
2023/05/04 04:23:30;;;;;;;11.82;6.35;;;;;;;9.46;64.56;102032.06;5038082;28;20037;-62
2023/05/04 04:25:55;;;;;;;10.23;6.25;;;;;;;9.48;64.19;102033.03;5055512;28;20032;-62
2023/05/04 04:28:21;;;;;;;13.25;6.45;;;;;;;9.47;64.76;102026.88;5055498;28;20029;-62
2023/05/04 04:30:47;;;;;;;10.20;6.13;;;;;;;9.49;64.79;102024.28;5055319;28;20529;-63
2023/05/04 04:33:12;;;;;;;10.20;5.90;;;;;;;9.46;64.98;102026.81;5037581;28;20033;-62
2023/05/04 04:35:37;;;;;;;11.30;6.35;;;;;;;9.47;64.89;102026.88;5055071;28;20483;-62
2023/05/04 04:38:03;;;;;;;13.63;6.30;;;;;;;9.47;64.68;102012.78;5055251;28;20033;-62
2023/05/04 04:40:29;;;;;;;11.00;6.50;;;;;;;9.49;65.08;102014.63;5055304;28;20025;-62
2023/05/04 04:42:55;;;;;;;10.95;6.53;;;;;;;9.46;64.85;102017.19;5055213;28;20036;-62
2023/05/04 04:45:20;;;;;;;15.23;6.47;;;;;;;9.43;65.43;102017.06;5055101;28;20478;-63
2023/05/04 04:47:46;;;;;;;12.80;5.93;;;;;;;9.47;65.24;102013.69;5055361;28;20032;-62
2023/05/04 04:50:11;;;;;;;10.27;5.88;;;;;;;9.48;65.53;102017.22;5055052;28;20036;-61
2023/05/04 04:52:37;;;;;;;11.43;6.97;;;;;;;9.47;65.54;102018.06;5054909;28;20035;-62
2023/05/04 04:55:03;;;;;;;11.63;6.38;;;;;;;9.46;65.48;102018.88;5054896;28;20029;-62
2023/05/04 04:57:29;;;;;;;14.00;6.22;;;;;;;9.44;65.53;102017.97;5054908;28;20029;-62
2023/05/04 04:59:54;;;;;;;9.45;6.15;;;;;;;9.48;65.59;102010.19;5054816;28;20025;-61
2023/05/04 05:02:20;;;;;;;9.00;5.85;;;;;;;9.57;65.76;102017.53;5036882;28;20036;-63
2023/05/04 05:04:45;;;;;;;9.20;6.32;;;;;;;9.61;65.36;102013.25;5054730;28;20048;-62
2023/05/04 05:07:11;;;;;;;9.95;6.50;;;;;;;9.61;65.68;102023.81;5055039;28;20055;-63
2023/05/04 05:09:37;;;;;;;9.60;6.32;;;;;;;9.63;65.59;102015.06;5054473;28;20052;-62
2023/05/04 05:12:03;;;;;;;9.02;6.25;;;;;;;9.66;65.88;102023.09;5054546;28;20051;-62
2023/05/04 05:14:30;;;;;;;10.63;6.28;;;;;;;9.69;66.30;102024.97;5036668;28;20025;-63
2023/05/04 05:16:56;;;;;;;13.25;6.60;;;;;;;9.68;65.84;102028.47;5054440;28;20033;-62
2023/05/04 05:19:21;;;;;;;11.30;5.97;;;;;;;9.69;65.94;102020.56;5054470;28;20029;-62
2023/05/04 05:21:48;;;;;;;9.68;6.18;;;;;;;9.77;65.74;102021.72;5054416;28;20033;-62
2023/05/04 05:24:13;;;;;;;11.07;6.68;;;;;;;9.80;65.69;102010.34;5054634;28;20110;-62
2023/05/04 05:26:40;;;;;;;13.93;6.97;;;;;;;9.89;65.51;102021.25;5053137;28;20476;-63
2023/05/04 05:29:05;;;;;;;10.35;6.32;;;;;;;9.92;65.39;102021.31;5054248;28;20498;-63
2023/05/04 05:31:31;;;;;;;12.82;6.60;;;;;;;10.02;65.56;102027.78;5036245;28;20053;-63
2023/05/04 05:33:57;;;;;;;8.77;6.30;;;;;;;10.08;65.19;102024.47;5054083;28;20482;-62
2023/05/04 05:36:22;;;;;;;10.40;6.38;;;;;;;10.20;65.04;102027.50;5054155;28;20021;-62
2023/05/04 05:38:48;;;;;;;12.43;6.72;;;;;;;10.23;65.09;102031.09;5053945;28;20171;-63
2023/05/04 05:41:14;;;;;;;12.00;6.28;;;;;;;10.30;65.36;102029.59;5054449;28;20040;-64
2023/05/04 05:43:40;;;;;;;14.40;6.68;;;;;;;10.39;64.65;102023.69;5054059;28;20441;-62
2023/05/04 05:46:06;;;;;;;9.98;6.25;;;;;;;10.43;64.51;102028.22;5053860;28;20467;-62
2023/05/04 05:48:31;;;;;;;11.07;5.93;;;;;;;10.55;64.68;102020.66;5053838;28;20021;-62
2023/05/04 05:50:57;;;;;;;12.05;6.57;;;;;;;10.61;64.31;102022.59;5053888;28;20032;-62
2023/05/04 05:53:22;;;;;;;9.07;6.10;;;;;;;10.69;63.76;102014.03;5053687;28;20379;-63
2023/05/04 05:55:48;;;;;;;10.52;6.30;;;;;;;10.81;63.69;102010.84;5053883;28;20033;-64
2023/05/04 05:58:13;;;;;;;10.80;6.38;;;;;;;10.90;63.60;102012.84;5053838;28;20108;-63
2023/05/04 06:00:39;;;;;;;12.35;6.35;;;;;;;11.02;62.78;102016.72;5053826;28;20117;-62
2023/05/04 06:03:04;;;;;;;12.85;6.63;;;;;;;11.13;62.94;102016.13;5053646;28;20031;-62
2023/05/04 06:05:29;;;;;;;11.98;6.10;;;;;;;11.19;61.97;102013.66;5053682;28;20021;-63
2023/05/04 06:07:55;;;;;;;11.80;6.05;;;;;;;11.24;62.03;102006.72;5053156;28;20056;-63
2023/05/04 06:10:21;;;;;;;10.98;6.22;;;;;;;11.39;62.09;102006.22;5053804;28;20095;-63
2023/05/04 06:12:46;;;;;;;8.70;5.80;;;;;;;11.37;61.48;102000.91;5053514;28;20022;-63
2023/05/04 06:15:13;;;;;;;12.82;6.40;;;;;;;11.45;61.91;102006.41;5053383;28;20557;-63
2023/05/04 06:17:38;;;;;;;12.18;6.10;;;;;;;11.47;61.64;102000.28;5053382;28;20517;-62
2023/05/04 06:20:05;;;;;;;10.43;6.65;;;;;;;11.56;62.07;101996.06;5053390;28;20033;-63
2023/05/04 06:22:31;;;;;;;9.02;6.30;;;;;;;11.70;61.80;101989.38;5053193;28;20036;-63
2023/05/04 06:24:56;;;;;;;10.75;5.97;;;;;;;11.76;61.56;101986.88;5053372;28;20387;-62
2023/05/04 06:27:22;;;;;;;9.30;5.97;;;;;;;11.87;60.57;101984.53;5053317;28;20029;-63
2023/05/04 06:29:47;;;;;;;10.82;6.25;;;;;;;11.94;60.49;101982.03;5053421;28;20112;-63
2023/05/04 06:32:13;;;;;;;14.63;6.65;;;;;;;12.07;60.86;101977.91;5052964;28;20423;-62
2023/05/04 06:34:38;;;;;;;9.75;6.03;;;;;;;12.27;59.56;101981.03;5035285;28;20028;-63
2023/05/04 06:37:04;;;;;;;10.93;6.03;;;;;;;12.38;58.85;101970.66;5052819;28;20159;-63
2023/05/04 06:39:30;;;;;;;11.00;6.03;;;;;;;12.42;57.96;101962.81;5052699;28;20100;-63
2023/05/04 06:41:55;;;;;;;10.18;5.82;;;;;;;12.44;57.87;101965.50;5052902;28;20419;-62
2023/05/04 06:44:21;;;;;;;14.65;6.68;;;;;;;12.53;58.03;101965.66;5052901;28;20029;-63
2023/05/04 06:46:47;;;;;;;10.07;6.38;;;;;;;12.67;58.04;101968.59;5018634;28;20025;-62
2023/05/04 06:49:12;;;;;;;13.02;6.38;;;;;;;12.77;57.48;101967.94;5052989;28;20017;-64
2023/05/04 06:51:38;;;;;;;11.07;5.95;;;;;;;12.85;57.77;101968.06;5052925;28;20055;-63
2023/05/04 06:54:03;;;;;;;13.25;6.07;;;;;;;12.97;56.92;101970.94;5052995;28;20036;-63
2023/05/04 06:56:29;;;;;;;10.90;5.60;;;;;;;13.04;56.30;101968.44;5052897;28;20029;-63
2023/05/04 06:58:55;;;;;;;12.10;5.78;;;;;;;13.07;55.99;101964.09;5052775;28;20029;-64
2023/05/04 07:01:20;;;;;;;9.07;5.40;;;;;;;13.11;55.90;101963.28;5052791;28;20035;-63
2023/05/04 07:03:46;;;;;;;10.30;5.78;;;;;;;13.22;56.21;101957.31;5052690;28;20029;-63
2023/05/04 07:06:12;;;;;;;12.60;5.88;;;;;;;13.35;55.64;101958.41;5052719;28;20029;-63
2023/05/04 07:08:37;;;;;;;9.65;5.78;;;;;;;13.50;55.78;101957.78;5034614;28;20055;-62
2023/05/04 07:11:04;;;;;;;8.93;5.53;;;;;;;13.62;55.23;101960.66;5052729;28;20035;-62
2023/05/04 07:13:29;;;;;;;13.45;5.60;;;;;;;13.63;54.56;101943.84;5052806;28;20079;-63
2023/05/04 07:15:55;;;;;;;15.02;5.57;;;;;;;13.70;54.71;101945.75;5052748;28;20033;-63
2023/05/04 07:18:21;;;;;;;13.25;5.70;;;;;;;13.76;54.51;101943.16;5052697;28;20501;-62
2023/05/04 07:20:46;;;;;;;11.07;5.90;;;;;;;13.88;54.06;101938.91;5052431;28;20033;-63
2023/05/04 07:23:12;;;;;;;11.25;6.00;;;;;;;13.97;54.25;101939.94;5052568;28;20033;-63
2023/05/04 07:25:37;;;;;;;10.52;6.00;;;;;;;14.15;54.10;101933.97;5052533;28;20033;-63
2023/05/04 07:28:03;;;;;;;11.43;5.70;;;;;;;14.25;53.64;101934.97;5052525;28;20021;-63
2023/05/04 07:30:28;;;;;;;12.38;5.85;;;;;;;14.37;53.10;101927.16;5052365;28;20396;-62
2023/05/04 07:32:54;;;;;;;12.35;6.10;;;;;;;14.52;53.76;101931.81;5052581;28;20387;-63
2023/05/04 07:35:19;;;;;;;10.75;5.82;;;;;;;14.74;53.52;101930.31;5052396;28;20487;-63
2023/05/04 07:37:45;;;;;;;11.15;6.30;;;;;;;15.07;51.71;101928.84;5052380;28;20060;-62
2023/05/04 07:40:13;;;;;;;12.55;6.00;;;;;;;15.39;52.14;101931.81;5052261;28;20029;-62
2023/05/04 07:42:39;;;;;;;8.10;5.88;;;;;;;15.61;50.93;101920.44;5035153;28;20041;-63
2023/05/04 07:45:07;;;;;;;9.50;5.20;;;;;;;15.93;48.96;101915.38;5052296;28;20036;-63
2023/05/04 07:47:32;;;;;;;10.70;5.40;;;;;;;15.97;47.95;101921.56;5052515;28;20039;-63
2023/05/04 07:49:58;;;;;;;13.65;5.88;;;;;;;15.99;48.56;101914.50;5053870;28;20021;-63
2023/05/04 07:52:23;;;;;;;11.38;5.35;;;;;;;16.00;48.82;101921.59;5056062;28;20025;-63
2023/05/04 07:54:52;;;;;;;11.07;5.85;;;;;;;16.27;48.21;101919.09;5056290;28;20028;-63
2023/05/04 07:57:18;;;;;;;9.88;5.65;;;;;;;16.46;47.68;101919.16;5056314;28;20084;-63
2023/05/04 07:59:43;;;;;;;12.55;6.07;;;;;;;16.65;47.42;101922.75;5055990;28;20021;-62
2023/05/04 08:02:09;;;;;;;9.63;5.82;;;;;;;16.69;46.44;101922.78;5055830;28;20514;-62
2023/05/04 08:04:34;;;;;;;21.52;6.30;;;;;;;16.78;46.61;101914.81;5055925;28;20469;-63
2023/05/04 08:07:00;;;;;;;9.13;6.50;;;;;;;16.78;46.44;101913.94;5055881;28;20378;-63
2023/05/04 08:09:25;;;;;;;12.27;7.50;;;;;;;16.89;47.65;101913.97;5055624;28;20053;-62
2023/05/04 08:11:51;;;;;;;12.77;9.35;;;;;;;16.97;47.29;101909.53;5037901;28;20029;-62
2023/05/04 08:14:16;;;;;;;11.32;7.25;;;;;;;17.27;47.07;101909.56;5037839;28;20048;-62
2023/05/04 08:16:42;;;;;;;13.30;6.15;;;;;;;17.51;44.46;101908.66;5037854;28;20040;-62
2023/05/04 08:19:08;;;;;;;17.45;7.80;;;;;;;17.82;44.67;101902.41;5055911;28;20028;-62
2023/05/04 08:21:34;;;;;;;14.70;7.30;;;;;;;18.06;43.91;101894.31;5055619;28;20513;-62
2023/05/04 08:23:59;;;;;;;12.35;5.55;;;;;;;18.12;44.25;101898.75;5055655;28;20056;-62
2023/05/04 08:26:25;;;;;;;11.32;6.20;;;;;;;18.20;43.13;101899.59;5055531;28;20037;-62
2023/05/04 08:28:50;;;;;;;8.68;6.15;;;;;;;18.31;43.03;101892.44;5055519;28;20056;-62
2023/05/04 08:31:17;;;;;;;13.55;10.95;;;;;;;18.48;43.30;101895.03;5055415;28;20053;-62
2023/05/04 08:33:43;;;;;;;10.13;5.95;;;;;;;18.56;41.70;101897.66;5055419;28;20061;-62
2023/05/04 08:36:08;;;;;;;13.02;5.90;;;;;;;18.58;42.27;101890.50;5054832;28;20390;-63
2023/05/04 08:38:34;;;;;;;12.80;5.90;;;;;;;18.64;43.04;101883.34;5055294;28;20078;-62
2023/05/04 08:41:02;;;;;;;12.23;6.35;;;;;;;18.71;43.50;101873.50;5055585;28;20025;-62
2023/05/04 08:43:28;;;;;;;12.30;6.30;;;;;;;18.86;41.89;101878.75;5055289;28;20504;-62
2023/05/04 08:45:54;;;;;;;12.00;5.85;;;;;;;19.10;40.78;101879.47;5055339;28;20097;-62
2023/05/04 08:48:21;;;;;;;11.35;6.13;;;;;;;19.45;41.09;101865.78;5055035;28;20025;-63
2023/05/04 08:50:47;;;;;;;11.60;6.20;;;;;;;19.74;40.13;101870.84;5055113;28;20440;-62
2023/05/04 08:53:14;;;;;;;13.88;6.00;;;;;;;19.87;39.84;101858.19;5054833;28;20033;-62
2023/05/04 08:55:42;;;;;;;8.70;5.88;;;;;;;20.04;39.41;101861.56;5055204;28;20021;-62
2023/05/04 08:58:10;;;;;;;12.60;5.70;;;;;;;20.11;38.96;101860.59;5054983;28;20025;-62
2023/05/04 09:00:37;;;;;;;9.02;5.90;;;;;;;20.14;39.65;101843.56;5054772;28;20025;-62
2023/05/04 09:03:04;;;;;;;14.27;5.70;;;;;;;20.06;38.77;101834.72;5055151;28;20033;-63
2023/05/04 09:05:30;;;;;;;11.95;5.65;;;;;;;20.05;39.33;101836.53;5055118;28;20037;-63
2023/05/04 09:07:57;;;;;;;9.30;5.72;;;;;;;20.04;38.36;101829.38;5054844;28;20052;-63
2023/05/04 09:10:23;;;;;;;10.50;5.90;;;;;;;20.06;39.01;101837.41;5054889;28;20056;-63
2023/05/04 09:12:49;;;;;;;10.57;5.72;;;;;;;20.17;39.23;101819.38;5054916;28;20040;-63
2023/05/04 09:15:19;;;;;;;9.75;5.72;;;;;;;20.16;39.94;101826.53;5054684;28;20102;-63
2023/05/04 09:17:58;;;;;;;9.35;5.93;;;;;;;20.34;40.58;101827.19;5054845;28;20418;-63
2023/05/04 09:20:24;;;;;;;12.27;5.82;;;;;;;20.46;39.28;101818.97;5054873;28;20032;-63
2023/05/04 09:23:07;;;;;;;9.75;5.78;;;;;;;20.41;39.10;101818.16;5054879;28;20033;-63
2023/05/04 09:25:34;;;;;;;13.48;6.15;;;;;;;20.46;38.99;101829.69;5054433;28;20017;-64
2023/05/04 09:27:59;;;;;;;9.73;6.20;;;;;;;20.47;39.74;101829.69;5036601;28;20029;-63
2023/05/04 09:30:25;;;;;;;9.48;6.25;;;;;;;20.52;37.83;101832.34;5054325;28;20387;-63
2023/05/04 09:32:51;;;;;;;17.77;6.43;;;;;;;20.70;38.06;101824.00;5054282;28;20409;-63
2023/05/04 09:35:25;;;;;;;16.02;6.40;;;;;;;20.95;38.55;101826.31;5054269;28;20036;-63
2023/05/04 09:37:50;;;;;;;11.50;6.22;;;;;;;21.16;37.50;101811.63;5037615;28;20490;-63
2023/05/04 09:40:16;;;;;;;11.68;5.90;;;;;;;21.39;38.24;101820.16;5054065;28;20057;-63
2023/05/04 09:42:41;;;;;;;10.70;6.57;;;;;;;21.53;37.77;101819.91;5054120;28;20033;-63
2023/05/04 09:45:08;;;;;;;10.90;6.15;;;;;;;21.71;37.20;101808.81;5054096;28;20545;-62
2023/05/04 09:47:40;;;;;;;9.18;5.72;;;;;;;22.04;35.93;101810.81;5054038;28;20127;-63
2023/05/04 09:50:13;;;;;;;15.88;6.30;;;;;;;22.24;35.83;101809.50;5054189;28;20035;-63
2023/05/04 09:52:41;;;;;;;15.73;6.07;;;;;;;22.40;35.56;101803.78;5053845;28;20478;-63
2023/05/04 09:55:09;;;;;;;8.52;5.88;;;;;;;22.47;35.99;101800.00;5054027;28;20041;-63
2023/05/04 09:57:35;;;;;;;14.65;6.18;;;;;;;22.71;34.97;101796.72;5036424;28;20028;-64
2023/05/04 10:00:03;;;;;;;9.95;6.22;;;;;;;22.99;34.53;101796.03;5053787;28;20025;-63
2023/05/04 10:02:31;;;;;;;12.25;6.38;;;;;;;23.19;34.79;101788.31;5053924;28;20123;-63
2023/05/04 10:04:57;;;;;;;14.65;5.90;;;;;;;23.52;34.33;101787.47;5035849;28;20040;-63
2023/05/04 10:07:23;;;;;;;9.60;6.18;;;;;;;23.42;33.60;101786.81;5053561;28;20098;-63
2023/05/04 10:09:50;;;;;;;14.65;6.30;;;;;;;23.74;33.83;101773.34;5053370;28;20057;-63
2023/05/04 10:12:16;;;;;;;14.77;6.22;;;;;;;23.83;33.06;101763.19;5052810;28;20029;-63
2023/05/04 10:14:45;;;;;;;15.18;6.18;;;;;;;23.90;33.46;101764.78;5053472;28;20037;-63
2023/05/04 10:17:26;;;;;;;9.43;6.80;;;;;;;23.92;33.26;101766.50;5053427;28;20390;-63
2023/05/04 10:20:04;;;;;;;10.73;6.47;;;;;;;23.95;33.36;101757.44;5053745;28;20032;-63
2023/05/04 10:22:54;;;;;;;8.82;5.90;;;;;;;24.05;33.17;101749.94;5053769;28;20028;-63
2023/05/04 10:25:44;;;;;;;12.57;6.72;;;;;;;24.06;32.97;101739.06;5035701;28;20116;-63
2023/05/04 10:28:30;;;;;;;13.43;6.55;;;;;;;24.26;32.95;101734.88;5053353;28;20478;-63
2023/05/04 10:30:58;;;;;;;13.98;6.93;;;;;;;24.23;33.04;101730.44;5053334;28;20029;-63
2023/05/04 10:33:25;;;;;;;14.07;6.80;;;;;;;24.16;32.10;101727.06;5035349;28;20029;-63
2023/05/04 10:35:54;;;;;;;11.98;6.63;;;;;;;24.47;32.03;101708.06;5035213;28;20044;-63
2023/05/04 10:38:32;;;;;;;9.93;6.45;;;;;;;24.72;31.61;101713.53;5053012;28;20073;-63
2023/05/04 10:40:57;;;;;;;12.65;6.35;;;;;;;24.62;31.58;101708.47;5053109;28;20107;-63
2023/05/04 10:43:23;;;;;;;13.73;6.32;;;;;;;24.42;31.55;101701.06;5053243;28;20043;-63
2023/05/04 10:45:48;;;;;;;10.10;6.28;;;;;;;24.21;32.73;101699.91;5052921;28;20040;-63
2023/05/04 10:48:14;;;;;;;13.32;6.20;;;;;;;24.31;32.43;101689.69;5053016;28;20048;-63
2023/05/04 10:50:49;;;;;;;10.45;6.50;;;;;;;24.22;31.56;101680.94;5052874;28;20151;-63
2023/05/04 10:53:16;;;;;;;12.00;5.78;;;;;;;24.53;32.06;101673.66;5053213;28;20057;-63
2023/05/04 10:55:44;;;;;;;9.05;5.90;;;;;;;24.73;31.70;101665.75;5053180;28;20029;-63
2023/05/04 10:58:15;;;;;;;10.73;5.72;;;;;;;24.81;31.90;101665.50;5053070;28;20043;-63
2023/05/04 11:00:43;;;;;;;13.50;6.00;;;;;;;24.93;30.06;101657.81;5053015;28;20025;-63
2023/05/04 11:03:10;;;;;;;10.55;5.97;;;;;;;24.63;29.79;101653.50;5053043;28;20095;-64
2023/05/04 11:05:44;;;;;;;10.50;5.35;;;;;;;24.60;31.48;101656.31;5053033;28;20043;-63
2023/05/04 11:08:18;;;;;;;9.05;5.55;;;;;;;24.44;31.52;101642.44;5052380;28;20385;-63
2023/05/04 11:10:58;;;;;;;9.05;5.40;;;;;;;24.35;30.77;101648.13;5053123;28;20048;-63
2023/05/04 11:13:25;;;;;;;12.18;4.90;;;;;;;24.41;30.40;101646.16;5034976;28;20037;-63
2023/05/04 11:15:51;;;;;;;8.85;5.28;;;;;;;24.53;30.68;101646.63;5035037;28;20025;-64
2023/05/04 11:18:45;;;;;;;10.23;4.90;;;;;;;24.85;31.22;101646.41;5052776;28;20032;-63